KGEY/GEY METAR and TAF weather

Enter ICAO airport designator
Station Type Date Time Source
KGEY METAR 2022/01/26 07:53 UTC NOAA

KGEY 260753Z AUTO 25003KT 10SM CLR M09/M12 A3005 RMK AO2 SLP219 T10891117


Station Type Date Time Source
KGEY Decoded METAR 2022/01/26 07:53 UTC NOAA

SOUTH BIG HORN COUNTY AIRPORT , WY, United States (KGEY) 44-31N 108-05W 1191M
Jan 26, 2022 - 02:53 AM EST / 2022.01.26 0753 UTC
Wind: from the WSW (250 degrees) at 3 MPH (3 KT):0
Visibility: 10 mile(s):0
Sky conditions: clear
Temperature: 16.0 F (-8.9 C)
Dew Point: 10.9 F (-11.7 C)
Relative Humidity: 80%
Pressure (altimeter): 30.05 in. Hg (1017 hPa)
ob: KGEY 260753Z AUTO 25003KT 10SM CLR M09/M12 A3005 RMK AO2 SLP219 T10891117
cycle: 8

Station Type Date Time Source
KGEY TAF UTC NOAA

Error!

Example: see airport list